Terminal Aerodrome Forecast
Issued by NWS Sioux Falls, SD

Home | Current Version | Previous Version | Graphics & Text | Print | Product List | Glossary On
Versions: 1 2 3 4 5 6 7 8 9 10 11 12 13
000
FTUS43 KFSD 152340
TAFFSD
TAF
KFSD 152340Z 1600/1624 16005KT P6SM BKN250
     FM161300 VRB03KT 3SM -FZDZ BR OVC010
     FM161800 03005KT P6SM OVC015
     FM162100 36006KT 3SM -FZDZSN OVC013=

USA.gov is the U.S. government's official web portal to all federal, state and local government web resources and services.